createdAt,value
2019-02-25T00:01:37.653Z,5.60
2019-02-25T00:04:42.622Z,5.60
2019-02-25T00:07:47.624Z,5.60
2019-02-25T00:10:52.615Z,5.60
2019-02-25T00:13:57.628Z,5.50
2019-02-25T00:17:02.706Z,5.50
2019-02-25T00:20:10.032Z,5.50
2019-02-25T00:23:15.118Z,5.50
2019-02-25T00:26:20.274Z,5.50
2019-02-25T00:29:30.459Z,5.50
2019-02-25T00:32:35.398Z,5.60
2019-02-25T00:35:40.398Z,5.70
2019-02-25T00:38:56.195Z,5.70
2019-02-25T00:42:01.500Z,5.70
2019-02-25T00:45:07.039Z,5.70
2019-02-25T00:48:11.969Z,5.70
2019-02-25T00:51:17.143Z,5.70
2019-02-25T00:54:22.056Z,5.70
2019-02-25T00:57:27.122Z,5.70
2019-02-25T01:00:33.781Z,5.70
2019-02-25T01:03:38.837Z,5.70
2019-02-25T01:06:43.847Z,5.70
2019-02-25T01:09:48.708Z,5.70
2019-02-25T01:12:53.732Z,5.70
2019-02-25T01:15:58.862Z,5.60
2019-02-25T01:19:03.854Z,5.60
2019-02-25T01:22:08.844Z,5.50
2019-02-25T01:25:14.116Z,5.50
2019-02-25T01:28:19.208Z,5.50
2019-02-25T01:31:24.149Z,5.60
2019-02-25T01:34:29.300Z,5.60
2019-02-25T01:37:34.246Z,5.60
2019-02-25T01:40:39.390Z,5.50
2019-02-25T01:43:44.408Z,5.60
2019-02-25T01:46:49.675Z,5.60
2019-02-25T01:49:54.783Z,5.60
2019-02-25T01:52:59.796Z,5.60
2019-02-25T01:56:04.855Z,5.50
2019-02-25T01:59:09.998Z,5.50
2019-02-25T02:02:14.847Z,5.50
2019-02-25T02:05:19.879Z,5.50
2019-02-25T02:08:25.013Z,5.40
2019-02-25T02:11:30.398Z,5.50
2019-02-25T02:14:35.454Z,5.50
2019-02-25T02:17:40.472Z,5.50
2019-02-25T02:20:45.318Z,5.60
2019-02-25T02:23:50.378Z,5.60
2019-02-25T02:26:55.454Z,5.70
2019-02-25T02:30:00.596Z,5.70
2019-02-25T02:33:05.446Z,5.70
2019-02-25T02:36:11.717Z,5.80
2019-02-25T02:39:16.954Z,5.80
2019-02-25T02:42:23.165Z,5.80
2019-02-25T02:45:37.692Z,5.80
2019-02-25T02:48:46.610Z,5.80
2019-02-25T02:51:51.742Z,5.80
2019-02-25T02:54:57.195Z,5.80
2019-02-25T02:58:02.261Z,5.90
2019-02-25T03:01:07.409Z,5.90
2019-02-25T03:04:12.420Z,5.90
2019-02-25T03:07:17.678Z,5.90
2019-02-25T03:10:22.610Z,6.00
2019-02-25T03:13:46.393Z,6.00
2019-02-25T03:16:51.363Z,6.00
2019-02-25T03:19:59.366Z,6.00
2019-02-25T03:23:04.309Z,6.00
2019-02-25T03:26:09.447Z,6.10
2019-02-25T03:29:14.531Z,6.10
2019-02-25T03:32:19.542Z,6.10
2019-02-25T03:35:35.467Z,6.10
2019-02-25T03:38:40.442Z,6.10
2019-02-25T03:41:45.347Z,6.10
2019-02-25T03:44:50.505Z,6.10
2019-02-25T03:47:55.450Z,6.10
2019-02-25T03:51:00.583Z,6.10
2019-02-25T03:54:05.530Z,6.20
2019-02-25T03:57:10.665Z,6.20
2019-02-25T04:00:17.912Z,6.20
2019-02-25T04:03:22.797Z,6.20
2019-02-25T04:06:27.678Z,6.20
2019-02-25T04:09:32.799Z,6.20
2019-02-25T04:12:38.012Z,6.20
2019-02-25T04:15:45.033Z,6.20
2019-02-25T04:18:49.855Z,6.20
2019-02-25T04:21:54.786Z,6.20
2019-02-25T04:24:59.850Z,6.20
2019-02-25T04:28:04.841Z,6.10
2019-02-25T04:31:10.163Z,6.10
2019-02-25T04:34:15.113Z,6.10
2019-02-25T04:37:20.185Z,6.10
2019-02-25T04:40:25.283Z,6.10
2019-02-25T04:43:30.279Z,6.00
2019-02-25T04:46:35.355Z,5.90
2019-02-25T04:49:40.349Z,5.90
2019-02-25T04:52:45.257Z,5.90
2019-02-25T04:55:50.181Z,5.90
2019-02-25T04:59:07.945Z,5.90
2019-02-25T05:02:12.992Z,5.90
2019-02-25T05:05:24.547Z,5.80
2019-02-25T05:08:29.618Z,5.80
2019-02-25T05:11:35.441Z,5.70
2019-02-25T05:14:40.599Z,5.60
2019-02-25T05:17:45.844Z,5.50
2019-02-25T05:20:50.797Z,5.40
2019-02-25T05:23:56.850Z,5.40
2019-02-25T05:27:01.795Z,5.30
2019-02-25T05:30:08.665Z,5.20
2019-02-25T05:33:14.042Z,5.20
2019-02-25T05:36:19.060Z,5.10
2019-02-25T05:39:24.039Z,5.00
2019-02-25T05:42:28.970Z,5.00
2019-02-25T05:45:33.967Z,5.10
2019-02-25T05:48:39.083Z,5.10
2019-02-25T05:51:44.235Z,5.20
2019-02-25T05:54:49.180Z,5.20
2019-02-25T05:57:54.113Z,5.30
2019-02-25T06:00:59.004Z,5.40
2019-02-25T06:04:03.999Z,5.40
2019-02-25T06:07:10.495Z,5.50
2019-02-25T06:10:15.630Z,5.60
2019-02-25T06:13:20.861Z,5.60
2019-02-25T06:16:25.784Z,5.70
2019-02-25T06:19:37.602Z,5.70
2019-02-25T06:22:42.612Z,5.80
2019-02-25T06:25:47.776Z,5.80
2019-02-25T06:28:52.685Z,5.80
2019-02-25T06:31:57.853Z,5.80
2019-02-25T06:35:02.776Z,5.80
2019-02-25T06:38:07.801Z,5.80
2019-02-25T06:41:12.893Z,5.80
2019-02-25T06:44:18.030Z,5.80
2019-02-25T06:47:23.117Z,5.90
2019-02-25T06:50:28.282Z,6.00
2019-02-25T06:53:33.273Z,6.20
2019-02-25T06:56:38.513Z,6.40
2019-02-25T06:59:43.503Z,6.60
2019-02-25T07:02:48.460Z,6.80
2019-02-25T07:06:13.549Z,6.90
2019-02-25T07:09:26.600Z,7.00
2019-02-25T07:12:50.399Z,7.00
2019-02-25T07:16:13.387Z,7.00
2019-02-25T07:19:49.393Z,7.00
2019-02-25T07:23:23.251Z,7.10
2019-02-25T07:26:48.085Z,7.30
2019-02-25T07:29:59.101Z,7.30
2019-02-25T07:33:29.173Z,7.50
2019-02-25T07:37:11.087Z,7.70
2019-02-25T07:40:42.986Z,8.00
2019-02-25T07:43:54.734Z,8.30
2019-02-25T07:47:05.332Z,8.70
2019-02-25T07:50:16.146Z,8.80
2019-02-25T07:53:38.416Z,8.90
2019-02-25T07:56:58.497Z,9.10
2019-02-25T08:00:28.413Z,9.20
2019-02-25T08:03:51.147Z,9.60
2019-02-25T08:07:13.583Z,10.00
2019-02-25T08:10:46.803Z,10.10
2019-02-25T08:14:01.631Z,10.20
2019-02-25T08:17:40.831Z,10.10
2019-02-25T08:21:04.958Z,10.10
2019-02-25T08:24:30.177Z,10.20
2019-02-25T08:28:05.037Z,10.30
2019-02-25T08:31:28.596Z,10.50
2019-02-25T08:35:01.569Z,10.90
2019-02-25T08:38:18.197Z,10.90
2019-02-25T08:41:32.999Z,11.00
2019-02-25T08:44:59.683Z,11.30
2019-02-25T08:48:11.957Z,11.30
2019-02-25T08:51:25.800Z,11.70
2019-02-25T08:54:23.837Z,12.20
2019-02-25T08:57:28.785Z,12.80
2019-02-25T09:00:34.113Z,13.80
2019-02-25T09:03:39.249Z,14.40
2019-02-25T09:06:44.200Z,15.50
2019-02-25T09:09:49.144Z,16.60
2019-02-25T09:12:54.283Z,19.00
2019-02-25T09:16:02.474Z,22.60
2019-02-25T09:19:07.508Z,24.10
2019-02-25T09:22:12.537Z,23.50
2019-02-25T09:25:19.148Z,23.50
2019-02-25T09:28:24.123Z,22.80
2019-02-25T09:31:28.958Z,21.40
2019-02-25T09:34:34.815Z,20.10
2019-02-25T09:37:39.741Z,19.10
2019-02-25T09:40:44.769Z,17.20
2019-02-25T09:43:50.019Z,16.80
2019-02-25T09:46:55.945Z,15.90
2019-02-25T09:50:01.031Z,15.60
2019-02-25T09:53:07.321Z,15.50
2019-02-25T09:56:12.615Z,15.60
2019-02-25T09:59:17.940Z,15.10
2019-02-25T10:02:24.778Z,14.50
2019-02-25T10:05:30.265Z,14.20
2019-02-25T10:08:35.468Z,14.00
2019-02-25T10:11:40.771Z,14.00
2019-02-25T10:14:45.755Z,14.30
2019-02-25T10:17:50.945Z,15.30
2019-02-25T10:20:56.053Z,18.70
2019-02-25T10:24:01.086Z,23.90
2019-02-25T10:27:06.211Z,25.60
2019-02-25T10:30:17.548Z,24.20
2019-02-25T10:33:22.549Z,26.70
2019-02-25T10:36:27.634Z,30.70
2019-02-25T10:39:32.619Z,32.30
2019-02-25T10:42:37.835Z,31.30
2019-02-25T10:45:43.409Z,29.90
2019-02-25T10:48:54.328Z,28.40
2019-02-25T10:51:57.768Z,26.40
2019-02-25T10:55:02.828Z,25.00
2019-02-25T10:58:08.452Z,23.40
2019-02-25T11:01:17.588Z,21.50
2019-02-25T11:04:21.775Z,19.20
2019-02-25T11:07:26.833Z,17.40
2019-02-25T11:10:40.545Z,16.10
2019-02-25T11:13:58.918Z,15.60
2019-02-25T11:17:05.101Z,15.40
2019-02-25T11:20:11.013Z,15.40
2019-02-25T11:23:17.638Z,15.20
2019-02-25T11:26:23.804Z,15.10
2019-02-25T11:29:31.144Z,15.00
2019-02-25T11:32:35.982Z,14.70
2019-02-25T11:35:41.525Z,14.70
2019-02-25T11:38:47.575Z,14.60
2019-02-25T11:41:52.397Z,14.40
2019-02-25T11:44:59.893Z,14.40
2019-02-25T11:48:04.430Z,14.60
2019-02-25T11:51:09.585Z,15.90
2019-02-25T11:54:14.659Z,17.90
2019-02-25T11:57:19.548Z,19.50
2019-02-25T12:00:25.620Z,24.70
2019-02-25T12:03:30.591Z,28.00
2019-02-25T12:06:36.076Z,30.90
2019-02-25T12:09:40.946Z,33.70
2019-02-25T12:12:45.911Z,35.70
2019-02-25T12:15:51.075Z,36.30
2019-02-25T12:18:56.225Z,38.10
2019-02-25T12:22:02.153Z,38.80
2019-02-25T12:25:07.901Z,39.40
2019-02-25T12:28:13.245Z,39.50
2019-02-25T12:31:18.387Z,40.60
2019-02-25T12:34:23.558Z,41.20
2019-02-25T12:37:28.549Z,40.60
2019-02-25T12:40:34.102Z,41.00
2019-02-25T12:43:39.295Z,41.20
2019-02-25T12:46:44.241Z,40.10
2019-02-25T12:49:49.242Z,37.00
2019-02-25T12:52:59.393Z,35.30
2019-02-25T12:56:04.129Z,34.30
2019-02-25T12:59:09.250Z,33.30
2019-02-25T13:02:14.293Z,31.50
2019-02-25T13:05:19.472Z,29.80
2019-02-25T13:08:24.483Z,30.20
2019-02-25T13:11:29.808Z,30.70
2019-02-25T13:14:34.852Z,29.80
2019-02-25T13:17:40.071Z,29.90
2019-02-25T13:20:45.088Z,30.50
2019-02-25T13:23:50.176Z,29.90
2019-02-25T13:26:55.018Z,29.80
2019-02-25T13:30:19.253Z,31.60
2019-02-25T13:33:26.940Z,32.70
2019-02-25T13:36:32.161Z,34.50
2019-02-25T13:39:37.616Z,35.90
2019-02-25T13:43:01.312Z,35.10
2019-02-25T13:46:10.746Z,33.30
2019-02-25T13:49:16.322Z,31.60
2019-02-25T13:52:21.317Z,32.20
2019-02-25T13:55:26.429Z,33.40
2019-02-25T13:58:31.399Z,33.40
2019-02-25T14:01:36.312Z,33.00
2019-02-25T14:04:41.134Z,30.80
2019-02-25T14:07:46.578Z,28.90
2019-02-25T14:10:51.522Z,27.70
2019-02-25T14:13:56.671Z,26.60
2019-02-25T14:17:01.994Z,25.40
2019-02-25T14:20:16.068Z,23.80
2019-02-25T14:23:21.086Z,22.60
2019-02-25T14:26:26.316Z,21.70
2019-02-25T14:29:31.427Z,20.60
2019-02-25T14:32:36.519Z,19.90
2019-02-25T14:35:42.070Z,19.20
2019-02-25T14:38:47.149Z,18.50
2019-02-25T14:41:54.568Z,17.70
2019-02-25T14:45:01.305Z,17.10
2019-02-25T14:48:08.181Z,16.80
2019-02-25T14:51:13.221Z,16.80
2019-02-25T14:54:18.557Z,16.60
2019-02-25T14:57:24.817Z,16.50
2019-02-25T15:00:34.361Z,16.40
2019-02-25T15:03:37.665Z,16.20
2019-02-25T15:06:42.903Z,16.10
2019-02-25T15:09:47.765Z,16.10
2019-02-25T15:12:57.066Z,15.80
2019-02-25T15:16:00.852Z,15.30
2019-02-25T15:19:06.146Z,14.90
2019-02-25T15:22:11.079Z,14.40
2019-02-25T15:25:16.230Z,14.10
2019-02-25T15:28:22.527Z,13.80
2019-02-25T15:31:27.686Z,13.70
2019-02-25T15:34:32.826Z,13.80
2019-02-25T15:37:37.856Z,13.80
2019-02-25T15:40:49.767Z,13.90
2019-02-25T15:43:57.829Z,13.90
2019-02-25T15:47:02.783Z,13.60
2019-02-25T15:50:10.560Z,13.50
2019-02-25T15:53:16.291Z,13.50
2019-02-25T15:56:21.493Z,13.50
2019-02-25T15:59:32.060Z,13.60
2019-02-25T16:02:33.193Z,13.70
2019-02-25T16:05:38.872Z,13.70
2019-02-25T16:08:45.281Z,13.70
2019-02-25T16:11:51.613Z,13.50
2019-02-25T16:14:56.887Z,13.40
2019-02-25T16:18:02.576Z,13.30
2019-02-25T16:21:07.953Z,13.40
2019-02-25T16:24:14.101Z,13.30
2019-02-25T16:27:21.171Z,13.30
2019-02-25T16:30:30.541Z,13.20
2019-02-25T16:33:35.236Z,13.20
2019-02-25T16:36:40.078Z,13.10
2019-02-25T16:39:45.202Z,13.00
2019-02-25T16:42:50.175Z,13.00
2019-02-25T16:45:55.343Z,12.90
2019-02-25T16:49:00.401Z,12.90
2019-02-25T16:52:05.446Z,12.80
2019-02-25T16:55:10.515Z,12.70
2019-02-25T16:58:16.336Z,12.70
2019-02-25T17:01:21.253Z,12.60
2019-02-25T17:04:27.995Z,12.60
2019-02-25T17:07:33.184Z,12.50
2019-02-25T17:10:38.379Z,12.50
2019-02-25T17:13:44.673Z,12.40
2019-02-25T17:16:50.120Z,12.30
2019-02-25T17:19:55.419Z,12.30
2019-02-25T17:23:00.402Z,12.20
2019-02-25T17:26:07.363Z,12.20
2019-02-25T17:29:12.559Z,12.10
2019-02-25T17:32:19.509Z,12.10
2019-02-25T17:35:26.648Z,12.00
2019-02-25T17:38:32.224Z,11.90
2019-02-25T17:41:42.594Z,11.90
2019-02-25T17:44:47.736Z,11.80
2019-02-25T17:47:58.314Z,11.70
2019-02-25T17:51:01.423Z,11.60
2019-02-25T17:54:07.600Z,11.50
2019-02-25T17:57:14.232Z,11.40
2019-02-25T18:00:37.406Z,11.30
2019-02-25T18:03:43.865Z,11.20
2019-02-25T18:06:49.257Z,11.20
2019-02-25T18:09:54.326Z,11.10
2019-02-25T18:13:01.140Z,11.00
2019-02-25T18:16:08.004Z,11.00
2019-02-25T18:19:13.956Z,10.80
2019-02-25T18:22:23.508Z,10.80
2019-02-25T18:25:30.139Z,10.70
2019-02-25T18:28:37.469Z,10.60
2019-02-25T18:31:41.950Z,10.50
2019-02-25T18:34:47.177Z,10.50
2019-02-25T18:37:52.516Z,10.40
2019-02-25T18:40:58.642Z,10.40
2019-02-25T18:44:04.913Z,10.30
2019-02-25T18:47:11.003Z,10.20
2019-02-25T18:50:19.933Z,10.10
2019-02-25T18:53:27.074Z,10.10
2019-02-25T18:56:33.656Z,9.90
2019-02-25T18:59:39.565Z,9.70
2019-02-25T19:02:44.829Z,9.60
2019-02-25T19:05:51.038Z,9.50
2019-02-25T19:08:58.157Z,9.40
2019-02-25T19:12:22.048Z,9.40
2019-02-25T19:15:27.450Z,9.40
2019-02-25T19:18:34.486Z,9.30
2019-02-25T19:21:58.149Z,9.30
2019-02-25T19:25:07.560Z,9.30
2019-02-25T19:28:16.557Z,9.10
2019-02-25T19:31:18.501Z,9.00
2019-02-25T19:34:23.464Z,9.00
2019-02-25T19:37:38.235Z,9.00
2019-02-25T19:40:45.896Z,9.00
2019-02-25T19:43:58.908Z,8.90
2019-02-25T19:46:57.003Z,8.90
2019-02-25T19:50:21.181Z,8.80
2019-02-25T19:53:26.293Z,8.80
2019-02-25T19:56:31.639Z,8.60
2019-02-25T19:59:36.682Z,8.60
2019-02-25T20:02:41.852Z,8.50
2019-02-25T20:05:48.486Z,8.50
2019-02-25T20:08:55.918Z,8.50
2019-02-25T20:12:01.830Z,8.40
2019-02-25T20:15:11.361Z,8.40
2019-02-25T20:18:18.156Z,8.20
2019-02-25T20:21:24.666Z,8.20
2019-02-25T20:24:29.861Z,8.20
2019-02-25T20:27:35.129Z,8.10
2019-02-25T20:30:42.876Z,8.10
2019-02-25T20:33:47.985Z,8.00
2019-02-25T20:36:55.439Z,8.00
2019-02-25T20:40:00.733Z,7.90
2019-02-25T20:43:06.217Z,8.00
2019-02-25T20:46:11.098Z,7.90
2019-02-25T20:49:18.092Z,7.90
2019-02-25T20:52:22.838Z,7.90
2019-02-25T20:55:29.431Z,7.90
2019-02-25T20:58:36.067Z,7.90
2019-02-25T21:01:44.060Z,7.80
2019-02-25T21:04:52.247Z,7.70
2019-02-25T21:07:59.832Z,7.70
2019-02-25T21:11:08.584Z,7.80
2019-02-25T21:14:11.481Z,7.70
2019-02-25T21:17:16.420Z,7.70
2019-02-25T21:20:21.840Z,7.80
2019-02-25T21:23:28.204Z,7.90
2019-02-25T21:26:33.988Z,7.90
2019-02-25T21:29:41.237Z,8.00
2019-02-25T21:32:47.522Z,8.00
2019-02-25T21:35:53.710Z,8.10
2019-02-25T21:38:58.672Z,8.10
2019-02-25T21:42:03.759Z,8.10
2019-02-25T21:45:09.273Z,8.20
2019-02-25T21:48:14.440Z,8.20
2019-02-25T21:51:19.434Z,8.30
2019-02-25T21:54:24.468Z,8.30
2019-02-25T21:57:31.312Z,8.30
2019-02-25T22:00:38.610Z,8.20
2019-02-25T22:03:45.834Z,8.20
2019-02-25T22:06:51.203Z,8.20
2019-02-25T22:09:57.402Z,8.20
2019-02-25T22:13:06.700Z,8.20
2019-02-25T22:16:09.291Z,8.20
2019-02-25T22:19:16.335Z,8.10
2019-02-25T22:22:24.144Z,8.10
2019-02-25T22:25:27.837Z,8.10
2019-02-25T22:28:34.788Z,8.00
2019-02-25T22:31:41.910Z,8.00
2019-02-25T22:34:46.368Z,7.90
2019-02-25T22:37:52.765Z,7.80
2019-02-25T22:41:00.391Z,7.80
2019-02-25T22:44:06.297Z,7.80
2019-02-25T22:47:13.688Z,7.70
2019-02-25T22:50:18.557Z,7.70
2019-02-25T22:53:23.602Z,7.70
2019-02-25T22:56:28.883Z,7.70
2019-02-25T22:59:35.524Z,7.60
2019-02-25T23:02:52.286Z,7.60
2019-02-25T23:05:56.960Z,7.60
2019-02-25T23:09:01.945Z,7.60
2019-02-25T23:12:07.067Z,7.60
2019-02-25T23:15:12.380Z,7.70
2019-02-25T23:18:19.307Z,7.70
2019-02-25T23:21:26.477Z,7.80
2019-02-25T23:24:34.639Z,7.80
2019-02-25T23:27:38.900Z,7.80
2019-02-25T23:30:44.155Z,7.80
2019-02-25T23:33:51.112Z,7.80
2019-02-25T23:36:56.290Z,7.90
2019-02-25T23:40:04.466Z,8.00
2019-02-25T23:43:09.687Z,8.00
2019-02-25T23:46:14.597Z,8.10
2019-02-25T23:49:27.122Z,8.20
2019-02-25T23:52:28.077Z,8.20
2019-02-25T23:55:33.018Z,8.20
2019-02-25T23:58:40.371Z,8.20
